createdAt,value
2022-11-22T00:02:22.702Z,15.77
2022-11-22T00:07:25.358Z,15.67
2022-11-22T00:12:27.988Z,17.20
2022-11-22T00:17:31.720Z,14.60
2022-11-22T00:22:38.487Z,16.93
2022-11-22T00:27:44.023Z,17.10
2022-11-22T00:32:46.738Z,15.10
2022-11-22T00:37:49.540Z,15.87
2022-11-22T00:42:52.087Z,14.50
2022-11-22T00:47:54.704Z,16.37
2022-11-22T00:52:57.242Z,15.13
2022-11-22T00:57:59.779Z,14.57
2022-11-22T01:03:02.372Z,16.30
2022-11-22T01:08:05.162Z,15.53
2022-11-22T01:13:07.764Z,13.87
2022-11-22T01:18:10.331Z,15.17
2022-11-22T01:23:12.920Z,14.20
2022-11-22T01:28:15.777Z,13.83
2022-11-22T01:33:19.231Z,13.73
2022-11-22T01:38:21.821Z,14.30
2022-11-22T01:43:26.420Z,15.07
2022-11-22T01:48:44.212Z,15.27
2022-11-22T01:53:47.221Z,14.03
2022-11-22T01:58:56.908Z,15.47
2022-11-22T02:04:02.813Z,14.80
2022-11-22T02:09:12.815Z,14.27
2022-11-22T02:14:18.801Z,15.77
2022-11-22T02:19:28.787Z,14.67
2022-11-22T02:24:46.998Z,14.43
2022-11-22T02:29:49.666Z,15.37
2022-11-22T02:34:52.339Z,12.70
2022-11-22T02:40:03.856Z,15.33
2022-11-22T02:45:06.859Z,14.85
2022-11-22T02:50:09.795Z,15.43
2022-11-22T02:55:12.590Z,13.43
2022-11-22T03:00:15.933Z,14.47
2022-11-22T03:05:18.586Z,13.03
2022-11-22T03:10:21.221Z,13.87
2022-11-22T03:15:23.936Z,14.40
2022-11-22T03:20:27.025Z,13.57
2022-11-22T03:25:29.599Z,15.23
2022-11-22T03:30:32.502Z,14.40
2022-11-22T03:35:35.117Z,13.33
2022-11-22T03:40:38.195Z,14.47
2022-11-22T03:45:46.355Z,11.57
2022-11-22T03:50:49.111Z,13.93
2022-11-22T03:55:51.796Z,13.37
2022-11-22T04:00:54.553Z,13.67
2022-11-22T04:05:57.272Z,14.30
2022-11-22T04:10:59.807Z,13.43
2022-11-22T04:16:02.668Z,9.80
2022-11-22T04:21:23.639Z,12.30
2022-11-22T04:26:26.330Z,8.80
2022-11-22T04:31:47.118Z,12.60
2022-11-22T04:36:49.700Z,13.93
2022-11-22T04:42:13.412Z,12.10
2022-11-22T04:47:36.168Z,13.53
2022-11-22T04:52:54.008Z,12.60
2022-11-22T04:57:59.970Z,11.50
2022-11-22T05:03:04.401Z,13.57
2022-11-22T05:08:07.781Z,12.37
2022-11-22T05:13:10.292Z,11.90
2022-11-22T05:18:13.119Z,13.20
2022-11-22T05:23:34.693Z,12.90
2022-11-22T05:28:39.282Z,11.57
2022-11-22T05:33:43.537Z,10.77
2022-11-22T05:38:46.757Z,9.40
2022-11-22T05:43:49.440Z,10.23
2022-11-22T05:48:53.276Z,8.57
2022-11-22T05:53:55.801Z,8.70
2022-11-22T05:58:58.450Z,9.03
2022-11-22T06:04:01.077Z,9.70
2022-11-22T06:09:04.532Z,9.27
2022-11-22T06:14:09.091Z,7.43
2022-11-22T06:19:12.851Z,8.20
2022-11-22T06:24:15.448Z,6.93
2022-11-22T06:29:18.445Z,7.53
2022-11-22T06:34:21.041Z,7.30
2022-11-22T06:39:23.597Z,7.72
2022-11-22T06:44:26.258Z,7.03
2022-11-22T06:49:29.317Z,6.95
2022-11-22T06:54:32.069Z,5.75
2022-11-22T06:59:35.023Z,5.78
2022-11-22T07:04:46.743Z,5.35
2022-11-22T07:09:58.864Z,4.50
2022-11-22T07:15:01.372Z,5.72
2022-11-22T07:20:06.432Z,5.13
2022-11-22T07:25:09.188Z,5.85
2022-11-22T07:30:12.175Z,6.30
2022-11-22T07:35:14.913Z,5.95
2022-11-22T07:40:17.479Z,5.22
2022-11-22T07:45:20.010Z,5.72
2022-11-22T07:50:22.613Z,5.60
2022-11-22T07:55:27.104Z,3.63
2022-11-22T08:00:30.052Z,4.05
2022-11-22T08:05:32.696Z,4.05
2022-11-22T08:10:35.376Z,5.35
2022-11-22T08:15:37.953Z,5.10
2022-11-22T08:20:40.520Z,4.28
2022-11-22T08:25:43.156Z,5.40
2022-11-22T08:30:45.695Z,4.05
2022-11-22T08:35:51.031Z,4.03
2022-11-22T08:40:53.657Z,4.32
2022-11-22T08:45:57.766Z,3.17
2022-11-22T08:51:10.991Z,3.42
2022-11-22T08:56:16.240Z,2.88
2022-11-22T09:01:21.461Z,3.22
2022-11-22T09:11:48.727Z,3.38
2022-11-22T09:16:53.389Z,3.55
2022-11-22T09:21:56.006Z,3.75
2022-11-22T09:26:58.553Z,3.53
2022-11-22T09:32:01.065Z,4.70
2022-11-22T09:37:03.652Z,4.75
2022-11-22T09:42:33.996Z,5.88
2022-11-22T09:53:40.347Z,4.95
2022-11-22T09:58:57.479Z,4.35
2022-11-22T10:04:11.202Z,4.78
2022-11-22T10:09:33.713Z,4.15
2022-11-22T10:14:36.384Z,4.47
2022-11-22T10:19:46.227Z,4.15
2022-11-22T10:24:54.607Z,3.90
2022-11-22T10:30:14.052Z,3.70
2022-11-22T10:35:22.784Z,4.38
2022-11-22T10:40:41.165Z,3.90
2022-11-22T10:45:48.675Z,3.78
2022-11-22T10:51:08.430Z,3.80
2022-11-22T10:56:10.919Z,3.13
2022-11-22T11:01:13.463Z,2.88
2022-11-22T11:06:24.498Z,2.05
2022-11-22T11:11:38.883Z,2.67
2022-11-22T11:16:41.691Z,2.60
2022-11-22T11:21:44.488Z,2.53
2022-11-22T11:26:58.512Z,2.80
2022-11-22T11:32:10.231Z,2.78
2022-11-22T11:37:31.568Z,3.15
2022-11-22T11:42:35.794Z,3.50
2022-11-22T11:47:38.374Z,3.30
2022-11-22T11:52:49.266Z,3.28
2022-11-22T11:57:53.612Z,3.90
2022-11-22T12:03:01.646Z,4.43
2022-11-22T12:08:29.355Z,4.65
2022-11-22T12:14:04.664Z,3.78
2022-11-22T12:25:24.344Z,4.13
2022-11-22T12:30:17.859Z,4.25
2022-11-22T12:35:23.881Z,5.13
2022-11-22T12:40:42.147Z,4.75
2022-11-22T12:45:50.479Z,5.05
2022-11-22T12:48:23.574Z,4.03
2022-11-22T12:50:56.668Z,5.00
2022-11-22T12:56:17.569Z,5.40
2022-11-22T13:01:26.507Z,4.80
2022-11-22T13:06:35.714Z,4.55
2022-11-22T13:11:43.004Z,4.03
2022-11-22T13:16:45.820Z,4.05
2022-11-22T13:22:12.386Z,4.95
2022-11-22T13:27:30.707Z,4.88
2022-11-22T13:32:35.076Z,4.38
2022-11-22T13:37:52.549Z,4.30
2022-11-22T13:43:17.900Z,4.03
2022-11-22T13:48:39.540Z,4.35
2022-11-22T13:53:46.784Z,4.00
2022-11-22T13:58:52.336Z,4.20
2022-11-22T14:04:19.645Z,4.63
2022-11-22T14:09:56.759Z,4.78
2022-11-22T14:15:23.922Z,4.03
2022-11-22T14:20:38.200Z,5.32
2022-11-22T14:25:40.829Z,4.53
2022-11-22T14:30:54.137Z,5.15
2022-11-22T14:36:09.792Z,5.05
2022-11-22T14:41:27.955Z,4.75
2022-11-22T14:46:57.220Z,3.97
2022-11-22T14:52:00.670Z,4.38
2022-11-22T14:57:06.442Z,4.32
2022-11-22T15:02:15.049Z,4.20
2022-11-22T15:09:12.138Z,4.30
2022-11-22T15:13:13.823Z,5.10
2022-11-22T16:02:03.765Z,4.07
2022-11-22T16:07:07.922Z,4.10
2022-11-22T16:12:35.785Z,3.70
2022-11-22T16:17:48.881Z,3.92
2022-11-22T16:23:09.817Z,3.67
2022-11-22T16:28:18.579Z,3.38
2022-11-22T16:33:21.407Z,4.22
2022-11-22T16:38:25.025Z,4.25
2022-11-22T16:43:34.455Z,4.10
2022-11-22T16:48:36.999Z,4.10
2022-11-22T16:53:39.560Z,4.75
2022-11-22T16:58:42.147Z,4.13
2022-11-22T17:03:46.549Z,6.07
2022-11-22T17:08:51.654Z,5.15
2022-11-22T17:13:54.738Z,6.40
2022-11-22T17:18:57.420Z,7.78
2022-11-22T17:24:02.364Z,7.90
2022-11-22T17:29:06.645Z,10.32
2022-11-22T17:34:11.408Z,10.68
2022-11-22T17:39:14.646Z,10.82
2022-11-22T17:44:18.047Z,10.65
2022-11-22T17:49:20.755Z,11.15
2022-11-22T17:54:23.645Z,11.07
2022-11-22T17:59:26.754Z,10.20
2022-11-22T18:04:29.717Z,9.73
2022-11-22T18:09:34.817Z,10.23
2022-11-22T18:14:37.779Z,10.07
2022-11-22T18:19:40.354Z,11.18
2022-11-22T18:24:43.014Z,10.52
2022-11-22T18:29:45.633Z,10.10
2022-11-22T18:34:50.034Z,10.73
2022-11-22T18:39:52.763Z,10.98
2022-11-22T18:44:55.309Z,10.65
2022-11-22T18:49:58.341Z,10.07
2022-11-22T18:55:01.286Z,9.35
2022-11-22T19:00:05.848Z,8.75
2022-11-22T19:05:08.664Z,8.35
2022-11-22T19:10:11.342Z,8.77
2022-11-22T19:15:18.351Z,9.23
2022-11-22T19:20:53.547Z,9.63
2022-11-22T19:25:48.383Z,9.85
2022-11-22T19:30:50.887Z,8.88
2022-11-22T19:36:01.367Z,9.63
2022-11-22T19:41:11.665Z,7.78
2022-11-22T19:46:15.055Z,7.80
2022-11-22T19:51:17.697Z,8.05
2022-11-22T19:56:21.139Z,7.95
2022-11-22T20:01:26.023Z,7.88
2022-11-22T20:06:30.063Z,8.15
2022-11-22T20:11:32.691Z,7.82
2022-11-22T20:16:37.182Z,7.63
2022-11-22T20:21:40.357Z,7.32
2022-11-22T20:26:43.812Z,6.88
2022-11-22T20:31:46.500Z,6.18
2022-11-22T20:36:49.135Z,6.40
2022-11-22T20:42:11.831Z,6.70
2022-11-22T20:47:15.173Z,6.00
2022-11-22T20:52:17.645Z,5.65
2022-11-22T20:57:20.295Z,4.90
2022-11-22T21:02:22.773Z,4.68
2022-11-22T21:07:26.912Z,3.80
2022-11-22T21:12:31.989Z,4.65
2022-11-22T21:17:46.073Z,4.32
2022-11-22T21:22:58.840Z,4.18
2022-11-22T21:28:01.414Z,3.85
2022-11-22T21:33:06.798Z,3.53
2022-11-22T21:38:09.503Z,4.03
2022-11-22T21:43:12.077Z,3.30
2022-11-22T21:48:15.372Z,3.35
2022-11-22T21:53:17.913Z,3.20
2022-11-22T21:58:22.423Z,3.65
2022-11-22T22:03:25.098Z,2.58
2022-11-22T22:08:29.558Z,3.60
2022-11-22T22:13:32.497Z,3.20
2022-11-22T22:18:37.992Z,3.55
2022-11-22T22:23:41.966Z,3.40
2022-11-22T22:28:47.919Z,4.03
2022-11-22T22:33:54.159Z,4.20
2022-11-22T22:38:56.650Z,4.60
2022-11-22T22:43:59.246Z,4.47
2022-11-22T22:49:01.907Z,5.80
2022-11-22T22:54:04.595Z,5.53
2022-11-22T22:59:07.989Z,7.20
2022-11-22T23:04:10.808Z,6.63
2022-11-22T23:09:13.487Z,6.72
2022-11-22T23:14:18.860Z,7.07
2022-11-22T23:19:21.909Z,7.00
2022-11-22T23:24:24.680Z,7.57
2022-11-22T23:29:30.910Z,6.53
2022-11-22T23:34:33.996Z,8.13
2022-11-22T23:39:36.529Z,8.18
2022-11-22T23:44:39.105Z,7.50
2022-11-22T23:49:41.727Z,8.07
2022-11-22T23:54:44.666Z,7.38
2022-11-22T23:59:47.282Z,8.00
